createdAt,value
2022-07-27T00:01:51.817Z,2.70
2022-07-27T00:04:19.632Z,2.78
2022-07-27T00:06:47.948Z,2.80
2022-07-27T00:09:16.372Z,2.42
2022-07-27T00:11:43.632Z,3.15
2022-07-27T00:14:10.828Z,2.72
2022-07-27T00:16:38.194Z,2.67
2022-07-27T00:19:09.393Z,2.63
2022-07-27T00:21:38.716Z,3.00
2022-07-27T00:24:12.169Z,2.80
2022-07-27T00:26:39.380Z,2.80
2022-07-27T00:29:06.584Z,2.50
2022-07-27T00:31:33.883Z,2.47
2022-07-27T00:34:01.100Z,2.80
2022-07-27T00:36:28.308Z,2.72
2022-07-27T00:38:55.557Z,2.67
2022-07-27T00:41:22.758Z,2.97
2022-07-27T00:43:50.812Z,3.10
2022-07-27T00:46:18.261Z,2.55
2022-07-27T00:48:45.548Z,2.80
2022-07-27T00:51:12.964Z,2.60
2022-07-27T00:53:40.259Z,2.55
2022-07-27T00:56:08.124Z,2.58
2022-07-27T00:58:35.976Z,2.70
2022-07-27T01:01:03.164Z,2.55
2022-07-27T01:03:30.421Z,2.42
2022-07-27T01:05:58.809Z,2.55
2022-07-27T01:08:27.430Z,2.42
2022-07-27T01:10:55.860Z,2.97
2022-07-27T01:13:23.116Z,2.30
2022-07-27T01:15:50.465Z,2.40
2022-07-27T01:18:28.303Z,2.47
2022-07-27T01:20:55.885Z,2.20
2022-07-27T01:23:26.402Z,2.40
2022-07-27T01:25:53.846Z,2.38
2022-07-27T01:28:21.207Z,2.70
2022-07-27T01:30:48.617Z,2.72
2022-07-27T01:33:15.879Z,2.22
2022-07-27T01:35:43.195Z,2.50
2022-07-27T01:38:10.947Z,2.40
2022-07-27T01:40:39.629Z,2.17
2022-07-27T01:43:07.029Z,2.50
2022-07-27T01:45:34.277Z,2.50
2022-07-27T01:48:01.891Z,2.58
2022-07-27T01:50:29.353Z,2.20
2022-07-27T01:52:56.671Z,2.63
2022-07-27T01:55:24.158Z,2.60
2022-07-27T01:57:51.386Z,2.40
2022-07-27T02:00:18.617Z,2.38
2022-07-27T02:02:45.833Z,2.70
2022-07-27T02:05:13.051Z,2.22
2022-07-27T02:07:41.007Z,2.05
2022-07-27T02:10:08.715Z,2.47
2022-07-27T02:12:36.052Z,2.20
2022-07-27T02:15:06.940Z,2.42
2022-07-27T02:17:35.129Z,2.20
2022-07-27T02:20:02.586Z,2.22
2022-07-27T02:22:29.833Z,2.20
2022-07-27T02:24:57.038Z,2.35
2022-07-27T02:27:24.250Z,2.35
2022-07-27T02:29:51.551Z,2.72
2022-07-27T02:32:18.872Z,2.35
2022-07-27T02:34:46.078Z,2.30
2022-07-27T02:37:13.413Z,2.25
2022-07-27T02:39:40.579Z,2.42
2022-07-27T02:42:07.913Z,2.08
2022-07-27T02:44:35.140Z,2.45
2022-07-27T02:47:02.421Z,2.10
2022-07-27T02:49:29.624Z,2.38
2022-07-27T02:51:56.960Z,2.00
2022-07-27T02:54:25.236Z,2.13
2022-07-27T02:56:53.489Z,1.90
2022-07-27T02:59:20.763Z,2.15
2022-07-27T03:01:48.045Z,2.03
2022-07-27T03:04:15.830Z,2.33
2022-07-27T03:06:43.225Z,2.40
2022-07-27T03:09:10.756Z,1.75
2022-07-27T03:11:38.276Z,2.00
2022-07-27T03:14:05.800Z,1.80
2022-07-27T03:16:33.045Z,1.70
2022-07-27T03:19:00.224Z,1.55
2022-07-27T03:21:27.451Z,2.15
2022-07-27T03:23:54.700Z,1.90
2022-07-27T03:26:21.891Z,1.77
2022-07-27T03:28:49.083Z,1.90
2022-07-27T03:31:16.537Z,1.90
2022-07-27T03:33:43.903Z,1.70
2022-07-27T03:36:11.131Z,1.60
2022-07-27T03:38:38.524Z,1.75
2022-07-27T03:41:06.825Z,1.88
2022-07-27T03:43:34.316Z,1.77
2022-07-27T03:46:01.613Z,1.63
2022-07-27T03:48:29.405Z,1.90
2022-07-27T03:50:56.711Z,1.50
2022-07-27T03:53:23.928Z,1.42
2022-07-27T03:55:52.006Z,1.55
2022-07-27T03:58:19.304Z,2.03
2022-07-27T04:00:46.584Z,2.00
2022-07-27T04:03:13.776Z,1.83
2022-07-27T04:05:40.987Z,1.70
2022-07-27T04:08:08.182Z,2.17
2022-07-27T04:10:35.389Z,1.80
2022-07-27T04:13:02.897Z,1.70
2022-07-27T04:15:31.909Z,1.73
2022-07-27T04:17:59.139Z,1.45
2022-07-27T04:20:26.748Z,1.50
2022-07-27T04:22:53.908Z,1.40
2022-07-27T04:25:21.137Z,1.55
2022-07-27T04:27:48.423Z,1.15
2022-07-27T04:30:15.660Z,1.55
2022-07-27T04:32:42.888Z,1.40
2022-07-27T04:35:10.310Z,1.33
2022-07-27T04:37:37.617Z,1.30
2022-07-27T04:40:05.154Z,1.10
2022-07-27T04:42:32.358Z,1.30
2022-07-27T04:44:59.832Z,1.65
2022-07-27T04:47:27.002Z,1.15
2022-07-27T04:49:54.192Z,1.42
2022-07-27T04:52:26.794Z,1.55
2022-07-27T04:54:56.147Z,1.92
2022-07-27T04:57:23.412Z,1.20
2022-07-27T04:59:50.718Z,1.52
2022-07-27T05:02:18.094Z,0.90
2022-07-27T05:04:45.331Z,1.40
2022-07-27T05:07:12.636Z,1.80
2022-07-27T05:09:39.880Z,1.40
2022-07-27T05:12:07.224Z,1.58
2022-07-27T05:14:34.480Z,1.77
2022-07-27T05:17:01.760Z,1.50
2022-07-27T05:19:40.666Z,1.30
2022-07-27T05:22:08.220Z,1.50
2022-07-27T05:24:35.403Z,1.52
2022-07-27T05:27:02.659Z,1.30
2022-07-27T05:29:29.917Z,1.27
2022-07-27T05:31:57.234Z,1.20
2022-07-27T05:34:24.616Z,1.30
2022-07-27T05:36:51.824Z,1.30
2022-07-27T05:39:19.297Z,1.88
2022-07-27T05:41:46.701Z,1.15
2022-07-27T05:44:16.142Z,1.30
2022-07-27T05:46:43.438Z,0.98
2022-07-27T05:49:11.957Z,1.20
2022-07-27T05:51:39.667Z,0.95
2022-07-27T05:54:06.990Z,1.40
2022-07-27T05:56:35.379Z,1.80
2022-07-27T05:59:06.833Z,1.10
2022-07-27T06:01:34.680Z,1.20
2022-07-27T06:04:02.098Z,1.48
2022-07-27T06:06:48.021Z,1.20
2022-07-27T06:09:15.481Z,1.60
2022-07-27T06:11:43.099Z,0.90
2022-07-27T06:14:10.999Z,1.70
2022-07-27T06:16:38.254Z,1.10
2022-07-27T06:19:06.138Z,1.00
2022-07-27T06:21:33.355Z,0.90
2022-07-27T06:24:00.597Z,1.48
2022-07-27T06:26:27.968Z,1.15
2022-07-27T06:28:58.771Z,1.00
2022-07-27T06:31:30.130Z,0.95
2022-07-27T06:34:03.739Z,1.40
2022-07-27T06:36:30.923Z,1.05
2022-07-27T06:38:58.109Z,0.98
2022-07-27T06:41:25.309Z,1.13
2022-07-27T06:43:52.521Z,1.30
2022-07-27T06:46:19.829Z,0.93
2022-07-27T06:48:47.122Z,1.10
2022-07-27T06:51:14.455Z,1.40
2022-07-27T06:53:42.277Z,1.05
2022-07-27T06:56:09.593Z,1.45
2022-07-27T06:58:40.577Z,1.10
2022-07-27T07:01:07.922Z,1.00
2022-07-27T07:03:35.247Z,1.10
2022-07-27T07:06:02.454Z,1.20
2022-07-27T07:08:29.729Z,1.08
2022-07-27T07:10:57.270Z,1.50
2022-07-27T07:13:24.499Z,1.20
2022-07-27T07:15:51.729Z,1.70
2022-07-27T07:18:19.084Z,1.10
2022-07-27T07:20:46.329Z,1.05
2022-07-27T07:23:14.233Z,1.00
2022-07-27T07:25:41.631Z,1.60
2022-07-27T07:28:08.969Z,1.10
2022-07-27T07:30:36.929Z,1.50
2022-07-27T07:33:04.188Z,1.13
2022-07-27T07:35:31.569Z,1.08
2022-07-27T07:37:58.894Z,1.20
2022-07-27T07:40:46.312Z,1.30
2022-07-27T07:43:14.365Z,1.63
2022-07-27T07:45:50.584Z,1.42
2022-07-27T07:48:19.772Z,1.65
2022-07-27T07:50:51.996Z,1.33
2022-07-27T07:53:20.681Z,1.52
2022-07-27T07:55:48.106Z,1.45
2022-07-27T07:58:15.713Z,1.33
2022-07-27T08:00:43.881Z,0.90
2022-07-27T08:03:11.283Z,1.42
2022-07-27T08:05:38.775Z,1.45
2022-07-27T08:08:06.053Z,1.80
2022-07-27T08:10:33.349Z,1.30
2022-07-27T08:13:00.553Z,1.70
2022-07-27T08:15:29.864Z,1.58
2022-07-27T08:18:03.746Z,1.20
2022-07-27T08:20:31.053Z,1.40
2022-07-27T08:22:58.327Z,1.50
2022-07-27T08:25:25.521Z,1.40
2022-07-27T08:27:52.762Z,1.25
2022-07-27T08:30:22.633Z,1.63
2022-07-27T08:32:51.365Z,1.63
2022-07-27T08:35:19.397Z,1.40
2022-07-27T08:37:47.041Z,1.40
2022-07-27T08:43:02.948Z,1.60
2022-07-27T08:45:32.821Z,1.33
2022-07-27T08:48:00.073Z,1.10
2022-07-27T08:50:30.111Z,1.48
2022-07-27T08:53:00.137Z,1.27
2022-07-27T08:55:28.648Z,1.50
2022-07-27T08:58:02.242Z,1.35
2022-07-27T09:00:30.584Z,1.58
2022-07-27T09:02:58.170Z,1.50
2022-07-27T09:05:25.925Z,1.65
2022-07-27T09:08:11.391Z,1.50
2022-07-27T09:10:38.708Z,1.40
2022-07-27T09:13:21.185Z,1.42
2022-07-27T09:16:16.252Z,1.50
2022-07-27T09:18:40.112Z,1.42
2022-07-27T09:21:13.141Z,1.80
2022-07-27T09:23:41.227Z,1.58
2022-07-27T09:26:27.610Z,1.75
2022-07-27T09:28:59.269Z,1.70
2022-07-27T09:31:26.753Z,1.38
2022-07-27T09:33:55.195Z,1.33
2022-07-27T09:36:23.940Z,1.80
2022-07-27T09:39:00.153Z,1.50
2022-07-27T09:41:39.394Z,1.95
2022-07-27T09:46:54.481Z,1.92
2022-07-27T09:49:34.888Z,1.80
2022-07-27T09:52:03.235Z,1.67
2022-07-27T09:54:47.456Z,1.52
2022-07-27T09:57:15.186Z,2.17
2022-07-27T09:59:42.391Z,2.00
2022-07-27T10:02:09.887Z,2.20
2022-07-27T10:04:37.320Z,1.60
2022-07-27T10:07:08.329Z,1.75
2022-07-27T10:09:38.863Z,1.60
2022-07-27T10:12:06.227Z,2.38
2022-07-27T10:14:33.585Z,2.10
2022-07-27T10:17:01.139Z,2.28
2022-07-27T10:19:37.596Z,1.60
2022-07-27T10:22:04.779Z,1.92
2022-07-27T10:24:39.413Z,1.83
2022-07-27T10:27:20.671Z,1.65
2022-07-27T10:29:48.893Z,1.70
2022-07-27T10:32:24.416Z,1.67
2022-07-27T10:34:51.653Z,1.85
2022-07-27T10:37:24.720Z,1.80
2022-07-27T10:40:13.371Z,1.95
2022-07-27T10:42:40.957Z,1.95
2022-07-27T10:45:09.675Z,1.90
2022-07-27T10:47:37.664Z,2.08
2022-07-27T10:50:17.064Z,2.35
2022-07-27T10:52:45.412Z,2.20
2022-07-27T10:55:37.067Z,2.25
2022-07-27T10:58:04.254Z,1.80
2022-07-27T11:00:54.761Z,2.00
2022-07-27T11:03:25.853Z,1.85
2022-07-27T11:06:14.524Z,1.63
2022-07-27T11:09:01.688Z,2.40
2022-07-27T11:11:38.170Z,2.05
2022-07-27T11:14:05.465Z,2.00
2022-07-27T11:16:43.134Z,2.25
2022-07-27T11:19:23.934Z,1.70
2022-07-27T11:21:52.483Z,2.22
2022-07-27T11:24:19.852Z,1.88
2022-07-27T11:26:48.631Z,1.42
2022-07-27T11:29:16.712Z,1.90
2022-07-27T11:31:55.255Z,2.08
2022-07-27T11:34:28.856Z,1.80
2022-07-27T11:36:58.363Z,2.00
2022-07-27T11:39:59.208Z,2.00
2022-07-27T11:42:20.880Z,1.95
2022-07-27T11:44:48.829Z,1.88
2022-07-27T11:47:20.213Z,1.83
2022-07-27T11:49:47.524Z,2.03
2022-07-27T11:52:17.262Z,1.85
2022-07-27T11:54:44.518Z,1.50
2022-07-27T11:57:13.800Z,2.30
2022-07-27T11:59:41.798Z,1.95
2022-07-27T12:02:17.902Z,2.00
2022-07-27T12:04:46.286Z,1.60
2022-07-27T12:07:16.676Z,1.77
2022-07-27T12:09:50.132Z,1.83
2022-07-27T12:12:19.372Z,2.05
2022-07-27T12:14:46.724Z,2.33
2022-07-27T12:17:21.505Z,1.73
2022-07-27T12:19:53.175Z,1.95
2022-07-27T12:22:32.999Z,2.03
2022-07-27T12:25:01.956Z,1.90
2022-07-27T12:27:29.374Z,1.73
2022-07-27T12:30:01.286Z,1.77
2022-07-27T12:32:28.999Z,1.70
2022-07-27T12:34:56.258Z,2.20
2022-07-27T12:37:23.591Z,2.13
2022-07-27T12:39:50.977Z,1.70
2022-07-27T12:42:18.313Z,1.88
2022-07-27T12:44:46.792Z,2.05
2022-07-27T12:47:32.776Z,2.05
2022-07-27T12:50:00.749Z,1.95
2022-07-27T12:52:28.014Z,1.83
2022-07-27T12:54:55.371Z,1.60
2022-07-27T12:57:53.600Z,1.60
2022-07-27T13:00:11.379Z,1.75
2022-07-27T13:02:38.730Z,1.90
2022-07-27T13:05:08.247Z,1.60
2022-07-27T13:07:36.558Z,2.00
2022-07-27T13:10:05.273Z,1.77
2022-07-27T13:12:32.684Z,1.80
2022-07-27T13:15:00.012Z,1.55
2022-07-27T13:17:27.248Z,1.60
2022-07-27T13:19:54.536Z,1.67
2022-07-27T13:22:21.881Z,1.90
2022-07-27T13:24:49.128Z,1.60
2022-07-27T13:27:17.009Z,1.83
2022-07-27T13:29:44.324Z,1.88
2022-07-27T13:32:11.609Z,1.73
2022-07-27T13:34:38.906Z,1.80
2022-07-27T13:37:06.352Z,1.98
2022-07-27T13:39:34.451Z,1.65
2022-07-27T13:42:01.838Z,1.70
2022-07-27T13:45:00.439Z,1.38
2022-07-27T13:47:16.261Z,2.25
2022-07-27T13:49:43.540Z,1.95
2022-07-27T13:52:14.838Z,1.95
2022-07-27T13:54:42.491Z,1.50
2022-07-27T13:57:09.676Z,1.58
2022-07-27T13:59:36.967Z,1.77
2022-07-27T14:02:04.504Z,1.80
2022-07-27T14:04:35.703Z,1.52
2022-07-27T14:07:03.112Z,1.90
2022-07-27T14:09:49.006Z,1.50
2022-07-27T14:12:16.291Z,1.77
2022-07-27T14:14:43.515Z,1.70
2022-07-27T14:17:10.741Z,1.70
2022-07-27T14:19:38.010Z,1.50
2022-07-27T14:22:05.314Z,1.88
2022-07-27T14:24:36.195Z,1.40
2022-07-27T14:27:06.451Z,1.40
2022-07-27T14:29:34.259Z,1.52
2022-07-27T14:32:01.943Z,1.92
2022-07-27T14:34:29.279Z,1.65
2022-07-27T14:36:56.513Z,1.90
2022-07-27T14:39:23.676Z,2.13
2022-07-27T14:41:50.960Z,1.60
2022-07-27T14:44:18.592Z,1.58
2022-07-27T14:46:46.625Z,2.17
2022-07-27T14:49:17.099Z,1.70
2022-07-27T14:51:44.634Z,1.20
2022-07-27T14:54:11.917Z,1.35
2022-07-27T14:56:39.108Z,1.42
2022-07-27T14:59:06.409Z,1.45
2022-07-27T15:01:33.680Z,1.20
2022-07-27T15:04:00.964Z,1.25
2022-07-27T15:06:28.172Z,1.70
2022-07-27T15:08:55.497Z,1.88
2022-07-27T15:11:22.725Z,1.25
2022-07-27T15:13:49.893Z,1.65
2022-07-27T15:16:17.398Z,1.50
2022-07-27T15:18:45.850Z,1.23
2022-07-27T15:21:14.121Z,1.25
2022-07-27T15:23:42.532Z,1.48
2022-07-27T15:26:09.787Z,1.63
2022-07-27T15:28:37.095Z,1.48
2022-07-27T15:31:05.077Z,1.63
2022-07-27T15:33:32.399Z,1.65
2022-07-27T15:35:59.601Z,1.55
2022-07-27T15:38:26.813Z,1.20
2022-07-27T15:40:54.268Z,1.65
2022-07-27T15:43:21.561Z,1.60
2022-07-27T15:45:49.692Z,1.77
2022-07-27T15:48:19.035Z,1.50
2022-07-27T15:50:48.626Z,1.30
2022-07-27T15:53:16.406Z,1.50
2022-07-27T15:55:44.364Z,1.40
2022-07-27T15:58:13.393Z,1.63
2022-07-27T16:00:41.695Z,1.50
2022-07-27T16:03:10.267Z,1.70
2022-07-27T16:05:37.650Z,1.70
2022-07-27T16:08:05.244Z,1.35
2022-07-27T16:10:32.453Z,1.33
2022-07-27T16:13:00.676Z,1.73
2022-07-27T16:15:46.675Z,1.50
2022-07-27T16:18:13.916Z,1.60
2022-07-27T16:20:41.107Z,1.58
2022-07-27T16:23:17.696Z,1.50
2022-07-27T16:26:03.484Z,1.35
2022-07-27T16:28:32.566Z,1.48
2022-07-27T16:30:59.840Z,1.38
2022-07-27T16:33:27.205Z,1.80
2022-07-27T16:35:54.424Z,1.83
2022-07-27T16:38:21.686Z,1.70
2022-07-27T16:40:48.947Z,1.48
2022-07-27T16:43:16.289Z,1.90
2022-07-27T16:45:43.536Z,1.40
2022-07-27T16:48:12.425Z,1.40
2022-07-27T16:50:40.447Z,1.40
2022-07-27T16:53:07.636Z,1.48
2022-07-27T16:55:34.813Z,1.50
2022-07-27T16:58:02.116Z,1.33
2022-07-27T17:00:29.360Z,1.42
2022-07-27T17:02:56.566Z,1.65
2022-07-27T17:05:23.809Z,1.30
2022-07-27T17:07:52.383Z,1.83
2022-07-27T17:10:27.157Z,1.48
2022-07-27T17:12:55.764Z,1.27
2022-07-27T17:15:25.192Z,1.50
2022-07-27T17:17:52.523Z,1.30
2022-07-27T17:20:35.128Z,1.45
2022-07-27T17:23:03.358Z,1.40
2022-07-27T17:25:30.580Z,1.02
2022-07-27T17:27:58.233Z,1.30
2022-07-27T17:30:25.515Z,1.30
2022-07-27T17:32:53.414Z,1.40
2022-07-27T17:35:20.649Z,1.33
2022-07-27T17:38:05.714Z,1.38
2022-07-27T17:40:33.658Z,1.40
2022-07-27T17:43:00.834Z,1.50
2022-07-27T17:45:28.155Z,1.42
2022-07-27T17:47:55.340Z,1.60
2022-07-27T17:50:22.584Z,1.20
2022-07-27T17:52:49.825Z,1.73
2022-07-27T17:55:17.050Z,1.20
2022-07-27T17:57:45.338Z,1.40
2022-07-27T18:00:12.900Z,1.27
2022-07-27T18:02:40.126Z,1.60
2022-07-27T18:05:07.523Z,1.45
2022-07-27T18:07:39.135Z,1.50
2022-07-27T18:10:08.265Z,1.38
2022-07-27T18:12:35.735Z,1.42
2022-07-27T18:15:22.173Z,1.70
2022-07-27T18:17:49.611Z,1.25
2022-07-27T18:20:16.824Z,1.65
2022-07-27T18:22:44.155Z,1.27
2022-07-27T18:25:11.515Z,1.38
2022-07-27T18:27:39.161Z,1.30
2022-07-27T18:30:06.764Z,1.40
2022-07-27T18:32:34.024Z,1.48
2022-07-27T18:35:01.903Z,1.42
2022-07-27T18:37:29.268Z,1.48
2022-07-27T18:39:56.557Z,1.13
2022-07-27T18:42:24.116Z,1.40
2022-07-27T18:44:51.370Z,1.10
2022-07-27T18:50:00.966Z,1.40
2022-07-27T18:52:28.415Z,1.35
2022-07-27T18:54:55.813Z,1.17
2022-07-27T18:57:23.168Z,1.45
2022-07-27T18:59:50.419Z,1.50
2022-07-27T19:02:17.742Z,1.50
2022-07-27T19:04:44.952Z,1.40
2022-07-27T19:07:15.557Z,1.58
2022-07-27T19:09:43.100Z,1.10
2022-07-27T19:12:10.406Z,1.23
2022-07-27T19:14:38.908Z,1.73
2022-07-27T19:17:06.371Z,1.30
2022-07-27T19:19:33.568Z,1.40
2022-07-27T19:22:00.746Z,1.35
2022-07-27T19:24:28.134Z,1.40
2022-07-27T19:26:55.325Z,1.45
2022-07-27T19:29:22.793Z,1.33
2022-07-27T19:31:50.082Z,1.58
2022-07-27T19:34:17.937Z,1.50
2022-07-27T19:36:45.537Z,1.17
2022-07-27T19:39:13.275Z,1.30
2022-07-27T19:41:40.638Z,1.58
2022-07-27T19:44:08.224Z,1.23
2022-07-27T19:46:35.686Z,1.30
2022-07-27T19:49:02.944Z,1.30
2022-07-27T19:51:30.293Z,1.40
2022-07-27T19:53:57.521Z,1.50
2022-07-27T19:56:24.695Z,1.50
2022-07-27T19:58:51.832Z,1.48
2022-07-27T20:01:19.207Z,1.63
2022-07-27T20:03:52.465Z,1.33
2022-07-27T20:06:22.149Z,1.40
2022-07-27T20:08:49.621Z,1.30
2022-07-27T20:11:16.818Z,1.33
2022-07-27T20:13:44.041Z,1.52
2022-07-27T20:16:11.400Z,1.98
2022-07-27T20:18:38.680Z,1.40
2022-07-27T20:21:16.393Z,1.35
2022-07-27T20:23:51.853Z,1.67
2022-07-27T20:26:19.227Z,1.80
2022-07-27T20:28:47.198Z,1.10
2022-07-27T20:31:14.396Z,1.20
2022-07-27T20:33:41.583Z,1.10
2022-07-27T20:36:08.811Z,1.45
2022-07-27T20:38:35.959Z,1.00
2022-07-27T20:41:03.183Z,1.58
2022-07-27T20:43:31.744Z,1.25
2022-07-27T20:45:59.091Z,1.27
2022-07-27T20:48:26.389Z,1.55
2022-07-27T20:50:53.609Z,1.20
2022-07-27T20:53:20.973Z,1.20
2022-07-27T20:55:48.425Z,1.45
2022-07-27T20:58:15.818Z,1.38
2022-07-27T21:00:43.166Z,1.50
2022-07-27T21:03:10.394Z,1.80
2022-07-27T21:05:37.592Z,1.38
2022-07-27T21:08:04.862Z,1.38
2022-07-27T21:10:32.084Z,1.60
2022-07-27T21:12:59.235Z,1.52
2022-07-27T21:15:33.502Z,1.73
2022-07-27T21:18:01.524Z,1.58
2022-07-27T21:20:28.902Z,1.70
2022-07-27T21:23:14.741Z,1.55
2022-07-27T21:25:43.283Z,1.80
2022-07-27T21:28:12.328Z,1.85
2022-07-27T21:33:11.269Z,1.60
2022-07-27T21:35:38.549Z,1.35
2022-07-27T21:38:06.152Z,1.50
2022-07-27T21:40:33.418Z,1.67
2022-07-27T21:43:00.980Z,1.52
2022-07-27T21:45:28.303Z,1.73
2022-07-27T21:47:55.636Z,1.48
2022-07-27T21:50:22.815Z,1.58
2022-07-27T21:52:51.250Z,2.00
2022-07-27T21:55:23.123Z,2.10
2022-07-27T21:57:51.011Z,2.67
2022-07-27T22:00:23.798Z,2.28
2022-07-27T22:02:51.255Z,1.48
2022-07-27T22:05:18.552Z,1.90
2022-07-27T22:07:45.749Z,1.30
2022-07-27T22:10:12.955Z,1.65
2022-07-27T22:12:40.135Z,1.60
2022-07-27T22:15:07.608Z,1.38
2022-07-27T22:17:34.749Z,1.15
2022-07-27T22:20:01.898Z,1.10
2022-07-27T22:22:29.019Z,1.40
2022-07-27T22:24:56.200Z,1.30
2022-07-27T22:27:23.352Z,1.23
2022-07-27T22:29:50.507Z,1.30
2022-07-27T22:32:17.877Z,1.40
2022-07-27T22:34:45.108Z,1.27
2022-07-27T22:37:14.945Z,0.90
2022-07-27T22:39:42.349Z,1.63
2022-07-27T22:42:10.096Z,1.33
2022-07-27T22:44:38.074Z,1.48
2022-07-27T22:47:06.052Z,0.95
2022-07-27T22:49:36.617Z,1.02
2022-07-27T22:52:05.584Z,1.13
2022-07-27T22:54:33.672Z,1.02
2022-07-27T22:57:01.078Z,1.95
2022-07-27T22:59:28.295Z,1.10
2022-07-27T23:01:55.550Z,1.55
2022-07-27T23:04:22.728Z,1.10
2022-07-27T23:06:50.243Z,1.13
2022-07-27T23:09:17.624Z,1.38
2022-07-27T23:11:45.159Z,1.10
2022-07-27T23:14:13.468Z,1.60
2022-07-27T23:16:41.104Z,1.27
2022-07-27T23:19:08.633Z,1.10
2022-07-27T23:21:35.803Z,1.33
2022-07-27T23:24:05.007Z,1.35
2022-07-27T23:26:32.288Z,1.35
2022-07-27T23:29:00.681Z,0.95
2022-07-27T23:31:27.969Z,1.10
2022-07-27T23:33:55.234Z,1.08
2022-07-27T23:36:22.427Z,1.30
2022-07-27T23:38:49.681Z,1.00
2022-07-27T23:41:16.987Z,1.27
2022-07-27T23:43:44.807Z,1.23
2022-07-27T23:46:12.124Z,1.10
2022-07-27T23:48:39.374Z,0.95
2022-07-27T23:51:07.642Z,1.55
2022-07-27T23:53:34.905Z,1.35
2022-07-27T23:56:02.139Z,0.93
2022-07-27T23:58:29.617Z,1.05
